createdAt,value
2023-04-16T00:00:42.335Z,11.63
2023-04-16T00:02:15.109Z,7.95
2023-04-16T00:03:47.359Z,14.18
2023-04-16T00:05:19.451Z,9.93
2023-04-16T00:06:51.289Z,12.18
2023-04-16T00:08:26.648Z,11.82
2023-04-16T00:09:58.485Z,13.52
2023-04-16T00:11:30.359Z,8.93
2023-04-16T00:13:02.231Z,10.70
2023-04-16T00:14:34.195Z,9.87
2023-04-16T00:16:06.501Z,12.15
2023-04-16T00:17:38.452Z,11.82
2023-04-16T00:19:10.912Z,12.20
2023-04-16T00:20:42.935Z,9.40
2023-04-16T00:22:14.776Z,11.82
2023-04-16T00:23:46.838Z,11.60
2023-04-16T00:25:18.664Z,11.07
2023-04-16T00:26:50.622Z,11.68
2023-04-16T00:28:22.515Z,8.60
2023-04-16T00:29:54.376Z,8.65
2023-04-16T00:31:28.317Z,9.90
2023-04-16T00:33:01.418Z,12.82
2023-04-16T00:34:33.451Z,12.32
2023-04-16T00:36:05.891Z,10.18
2023-04-16T00:37:37.698Z,9.55
2023-04-16T00:39:09.757Z,11.98
2023-04-16T00:40:41.793Z,10.45
2023-04-16T00:42:13.671Z,12.13
2023-04-16T00:43:45.820Z,9.07
2023-04-16T00:45:17.826Z,12.02
2023-04-16T00:46:49.721Z,10.00
2023-04-16T00:48:21.910Z,11.23
2023-04-16T00:49:53.800Z,8.73
2023-04-16T00:51:25.687Z,10.57
2023-04-16T00:52:57.649Z,12.30
2023-04-16T00:54:30.030Z,10.85
2023-04-16T00:56:06.974Z,11.27
2023-04-16T00:57:39.246Z,11.65
2023-04-16T00:59:11.921Z,11.23
2023-04-16T01:00:43.803Z,12.77
2023-04-16T01:02:16.493Z,17.35
2023-04-16T01:03:49.558Z,14.25
2023-04-16T01:05:21.558Z,15.30
2023-04-16T01:06:53.436Z,12.80
2023-04-16T01:08:25.537Z,16.17
2023-04-16T01:09:57.477Z,17.17
2023-04-16T01:11:29.332Z,17.27
2023-04-16T01:13:01.249Z,12.23
2023-04-16T01:14:36.559Z,14.87
2023-04-16T01:16:10.711Z,13.25
2023-04-16T01:17:45.930Z,16.13
2023-04-16T01:19:17.787Z,10.93
2023-04-16T01:20:52.695Z,18.27
2023-04-16T01:22:24.713Z,13.45
2023-04-16T01:23:56.557Z,12.87
2023-04-16T01:25:28.450Z,17.25
2023-04-16T01:27:00.418Z,16.73
2023-04-16T01:28:32.329Z,17.87
2023-04-16T01:30:05.315Z,18.20
2023-04-16T01:33:29.588Z,13.20
2023-04-16T01:35:01.612Z,17.50
2023-04-16T01:36:33.476Z,12.52
2023-04-16T01:38:06.187Z,18.00
2023-04-16T01:39:38.036Z,20.70
2023-04-16T01:41:09.960Z,22.27
2023-04-16T01:42:41.775Z,19.63
2023-04-16T01:44:14.032Z,14.80
2023-04-16T01:45:47.451Z,15.80
2023-04-16T01:47:19.484Z,16.90
2023-04-16T01:48:54.881Z,17.52
2023-04-16T01:50:27.281Z,17.90
2023-04-16T01:51:59.323Z,13.65
2023-04-16T01:53:31.279Z,15.57
2023-04-16T01:55:03.854Z,12.50
2023-04-16T01:56:35.911Z,20.60
2023-04-16T01:58:10.800Z,11.77
2023-04-16T01:59:45.723Z,19.33
2023-04-16T02:01:17.696Z,15.73
2023-04-16T02:02:51.072Z,13.05
2023-04-16T02:04:30.648Z,15.23
2023-04-16T02:06:02.585Z,15.93
2023-04-16T02:07:34.428Z,15.85
2023-04-16T02:09:06.366Z,16.63
2023-04-16T02:10:38.433Z,19.40
2023-04-16T02:12:12.064Z,17.98
2023-04-16T02:13:43.918Z,13.65
2023-04-16T02:15:16.594Z,16.48
2023-04-16T02:16:49.032Z,17.20
2023-04-16T02:18:41.046Z,16.15
2023-04-16T02:20:13.147Z,14.00
2023-04-16T02:21:53.491Z,20.50
2023-04-16T02:23:25.356Z,15.38
2023-04-16T02:24:57.440Z,18.05
2023-04-16T02:26:29.973Z,16.10
2023-04-16T02:28:07.619Z,17.65
2023-04-16T02:29:43.196Z,19.05
2023-04-16T02:31:19.892Z,15.50
2023-04-16T02:32:53.259Z,16.67
2023-04-16T02:34:25.933Z,17.42
2023-04-16T02:35:58.302Z,18.17
2023-04-16T02:37:30.236Z,17.13
2023-04-16T02:39:02.229Z,18.00
2023-04-16T02:40:34.158Z,20.63
2023-04-16T02:42:06.121Z,19.50
2023-04-16T02:43:38.077Z,18.23
2023-04-16T02:45:10.637Z,26.50
2023-04-16T02:46:42.505Z,23.10
2023-04-16T02:48:23.449Z,20.77
2023-04-16T02:49:55.429Z,21.48
2023-04-16T02:51:27.963Z,20.17
2023-04-16T02:52:59.975Z,21.77
2023-04-16T02:54:31.899Z,24.45
2023-04-16T02:56:03.892Z,18.55
2023-04-16T02:57:35.942Z,17.98
2023-04-16T02:59:08.167Z,20.65
2023-04-16T03:00:40.251Z,23.45
2023-04-16T03:02:12.308Z,19.33
2023-04-16T03:03:44.389Z,17.90
2023-04-16T03:05:16.444Z,23.02
2023-04-16T03:06:48.512Z,22.73
2023-04-16T03:08:20.841Z,20.92
2023-04-16T03:09:52.832Z,18.45
2023-04-16T03:11:24.764Z,26.60
2023-04-16T03:12:56.681Z,27.52
2023-04-16T03:14:28.750Z,24.20
2023-04-16T03:16:00.808Z,25.27
2023-04-16T03:17:32.770Z,21.13
2023-04-16T03:19:04.665Z,31.37
2023-04-16T03:20:36.511Z,20.92
2023-04-16T03:22:08.586Z,20.77
2023-04-16T03:23:40.648Z,24.03
2023-04-16T03:25:19.366Z,20.92
2023-04-16T03:26:51.280Z,27.05
2023-04-16T03:28:25.127Z,23.90
2023-04-16T03:29:57.411Z,27.77
2023-04-16T03:31:30.173Z,25.00
2023-04-16T03:33:03.258Z,26.02
2023-04-16T03:34:37.050Z,24.58
2023-04-16T03:36:10.342Z,22.85
2023-04-16T03:37:42.288Z,26.80
2023-04-16T03:39:14.418Z,25.13
2023-04-16T03:40:46.532Z,25.23
2023-04-16T03:42:20.260Z,21.80
2023-04-16T03:43:52.100Z,22.63
2023-04-16T03:45:24.094Z,34.22
2023-04-16T03:46:56.796Z,29.05
2023-04-16T03:48:28.901Z,28.85
2023-04-16T03:50:00.754Z,23.30
2023-04-16T03:51:33.263Z,35.30
2023-04-16T03:53:05.168Z,28.27
2023-04-16T03:54:37.690Z,31.00
2023-04-16T03:56:27.313Z,28.17
2023-04-16T03:58:03.230Z,34.63
2023-04-16T03:59:36.897Z,27.52
2023-04-16T04:01:08.778Z,30.65
2023-04-16T04:02:42.491Z,29.80
2023-04-16T04:04:22.037Z,30.00
2023-04-16T04:05:53.968Z,28.85
2023-04-16T04:07:31.129Z,34.05
2023-04-16T04:09:03.124Z,23.70
2023-04-16T04:10:35.843Z,31.13
2023-04-16T04:12:10.275Z,30.40
2023-04-16T04:13:43.783Z,30.95
2023-04-16T04:15:15.759Z,31.53
2023-04-16T04:16:47.881Z,32.60
2023-04-16T04:18:20.056Z,28.02
2023-04-16T04:20:01.181Z,32.90
2023-04-16T04:21:35.781Z,35.15
2023-04-16T04:23:09.482Z,34.40
2023-04-16T04:24:41.418Z,32.60
2023-04-16T04:26:13.402Z,29.60
2023-04-16T04:27:45.931Z,31.70
2023-04-16T04:29:17.790Z,33.63
2023-04-16T04:30:49.712Z,32.67
2023-04-16T04:32:21.754Z,35.42
2023-04-16T04:33:54.609Z,35.25
2023-04-16T04:35:26.825Z,38.50
2023-04-16T04:36:59.477Z,33.67
2023-04-16T04:38:33.064Z,27.77
2023-04-16T04:40:05.268Z,30.75
2023-04-16T04:41:40.724Z,36.75
2023-04-16T04:43:12.788Z,38.03
2023-04-16T04:44:45.401Z,30.80
2023-04-16T04:46:17.460Z,35.15
2023-04-16T04:47:49.483Z,29.57
2023-04-16T04:49:21.533Z,34.83
2023-04-16T04:50:54.132Z,37.30
2023-04-16T04:52:26.103Z,30.60
2023-04-16T04:53:58.079Z,35.97
2023-04-16T04:55:30.025Z,27.08
2023-04-16T04:57:03.546Z,29.80
2023-04-16T04:58:35.772Z,35.38
2023-04-16T05:00:08.387Z,33.53
2023-04-16T05:01:47.567Z,31.60
2023-04-16T05:03:21.450Z,32.42
2023-04-16T05:04:53.527Z,41.42
2023-04-16T05:06:26.348Z,36.33
2023-04-16T05:07:59.188Z,34.97
2023-04-16T05:09:31.116Z,40.03
2023-04-16T05:11:03.066Z,31.10
2023-04-16T05:12:35.053Z,40.03
2023-04-16T05:14:06.938Z,39.40
2023-04-16T05:15:40.452Z,34.33
2023-04-16T05:17:12.363Z,29.83
2023-04-16T05:18:44.338Z,33.53
2023-04-16T05:20:16.264Z,40.43
2023-04-16T05:21:48.171Z,35.42
2023-04-16T05:23:20.143Z,37.10
2023-04-16T05:24:52.040Z,32.75
2023-04-16T05:26:24.003Z,35.85
2023-04-16T05:27:55.972Z,39.72
2023-04-16T05:29:28.616Z,38.60
2023-04-16T05:31:00.613Z,30.67
2023-04-16T05:32:32.697Z,43.97
2023-04-16T05:34:04.635Z,35.83
2023-04-16T05:35:36.588Z,40.85
2023-04-16T05:37:08.452Z,37.33
2023-04-16T05:38:40.535Z,39.13
2023-04-16T05:40:14.024Z,42.25
2023-04-16T05:41:45.946Z,38.63
2023-04-16T05:43:18.137Z,39.38
2023-04-16T05:44:51.238Z,44.55
2023-04-16T05:46:23.167Z,41.75
2023-04-16T05:47:55.194Z,35.90
2023-04-16T05:49:27.137Z,38.30
2023-04-16T05:50:59.099Z,41.70
2023-04-16T05:52:31.246Z,37.38
2023-04-16T05:54:03.180Z,39.63
2023-04-16T05:55:37.127Z,39.10
2023-04-16T05:57:09.216Z,37.28
2023-04-16T05:58:41.129Z,37.60
2023-04-16T06:00:13.271Z,43.10
2023-04-16T06:01:45.176Z,35.95
2023-04-16T06:03:17.222Z,41.22
2023-04-16T06:04:50.163Z,41.28
2023-04-16T06:07:53.838Z,39.58
2023-04-16T06:09:25.865Z,45.00
2023-04-16T06:10:57.803Z,37.83
2023-04-16T06:12:29.697Z,39.05
2023-04-16T06:14:01.698Z,41.58
2023-04-16T06:15:33.632Z,36.22
2023-04-16T06:17:05.573Z,39.60
2023-04-16T06:18:37.468Z,40.72
2023-04-16T06:20:10.013Z,36.63
2023-04-16T06:21:41.953Z,40.55
2023-04-16T06:23:13.870Z,37.13
2023-04-16T06:24:45.874Z,39.10
2023-04-16T06:26:18.449Z,37.40
2023-04-16T06:27:50.323Z,39.17
2023-04-16T06:29:27.896Z,34.95
2023-04-16T06:32:37.693Z,41.47
2023-04-16T06:34:09.574Z,40.90
2023-04-16T06:35:41.467Z,40.92
2023-04-16T06:37:13.399Z,41.10
2023-04-16T06:38:45.394Z,39.20
2023-04-16T06:40:17.409Z,40.80
2023-04-16T06:41:49.453Z,43.30
2023-04-16T06:43:22.940Z,44.28
2023-04-16T06:44:54.865Z,39.63
2023-04-16T06:46:26.794Z,36.42
2023-04-16T06:48:01.812Z,35.30
2023-04-16T06:49:33.841Z,36.72
2023-04-16T06:51:05.864Z,38.23
2023-04-16T06:52:37.806Z,37.22
2023-04-16T06:54:09.770Z,39.35
2023-04-16T06:55:41.779Z,35.40
2023-04-16T06:57:13.787Z,39.08
2023-04-16T06:58:45.801Z,36.30
2023-04-16T07:00:18.029Z,36.58
2023-04-16T07:01:50.097Z,35.80
2023-04-16T07:03:22.239Z,36.53
2023-04-16T07:04:54.246Z,41.03
2023-04-16T07:06:27.367Z,33.10
2023-04-16T07:07:59.674Z,39.00
2023-04-16T07:09:31.693Z,36.13
2023-04-16T07:11:03.685Z,37.73
2023-04-16T07:12:35.635Z,37.50
2023-04-16T07:14:07.666Z,35.97
2023-04-16T07:15:39.733Z,39.10
2023-04-16T07:17:11.625Z,33.37
2023-04-16T07:18:43.742Z,35.85
2023-04-16T07:20:16.302Z,33.33
2023-04-16T07:21:48.220Z,31.30
2023-04-16T07:23:20.153Z,31.63
2023-04-16T07:24:52.129Z,42.67
2023-04-16T07:26:24.110Z,40.80
2023-04-16T07:27:56.011Z,37.72
2023-04-16T07:29:27.910Z,33.77
2023-04-16T07:31:00.160Z,37.40
2023-04-16T07:32:32.074Z,33.83
2023-04-16T07:34:04.098Z,33.53
2023-04-16T07:35:36.316Z,35.72
2023-04-16T07:37:09.462Z,35.22
2023-04-16T07:38:41.524Z,38.22
2023-04-16T07:40:13.470Z,32.75
2023-04-16T07:41:45.689Z,35.87
2023-04-16T07:43:17.636Z,39.97
2023-04-16T07:44:49.587Z,34.10
2023-04-16T07:46:22.175Z,36.92
2023-04-16T07:47:54.279Z,30.40
2023-04-16T07:49:26.215Z,35.20
2023-04-16T07:50:58.213Z,35.47
2023-04-16T07:52:30.193Z,38.80
2023-04-16T07:54:02.291Z,37.22
2023-04-16T07:55:34.271Z,32.70
2023-04-16T07:57:06.222Z,24.75
2023-04-16T07:58:38.081Z,31.95
2023-04-16T08:00:11.033Z,33.33
2023-04-16T08:01:45.770Z,34.97
2023-04-16T08:03:18.483Z,36.73
2023-04-16T08:06:22.767Z,33.58
2023-04-16T08:07:54.681Z,36.25
2023-04-16T08:09:28.126Z,35.40
2023-04-16T08:11:00.390Z,33.78
2023-04-16T08:12:32.454Z,34.15
2023-04-16T08:14:04.421Z,32.57
2023-04-16T08:15:36.456Z,34.55
2023-04-16T08:17:08.474Z,38.55
2023-04-16T08:18:40.581Z,37.83
2023-04-16T08:20:15.716Z,35.97
2023-04-16T08:21:49.759Z,32.35
2023-04-16T08:23:21.891Z,36.85
2023-04-16T08:24:53.851Z,31.60
2023-04-16T08:26:25.820Z,34.10
2023-04-16T08:27:57.687Z,40.03
2023-04-16T08:29:29.680Z,37.87
2023-04-16T08:31:01.705Z,34.65
2023-04-16T08:32:33.856Z,34.13
2023-04-16T08:34:06.053Z,32.55
2023-04-16T08:35:37.972Z,36.50
2023-04-16T08:37:10.403Z,37.23
2023-04-16T08:38:42.340Z,35.47
2023-04-16T08:40:14.279Z,34.50
2023-04-16T08:41:47.519Z,41.70
2023-04-16T08:43:19.700Z,34.03
2023-04-16T08:44:53.984Z,36.10
2023-04-16T08:46:28.771Z,34.05
2023-04-16T08:48:01.158Z,33.92
2023-04-16T08:49:34.491Z,35.50
2023-04-16T08:51:09.923Z,33.90
2023-04-16T08:52:53.016Z,31.50
2023-04-16T08:54:56.671Z,32.95
2023-04-16T08:58:02.023Z,29.27
2023-04-16T08:59:34.673Z,35.53
2023-04-16T09:01:06.969Z,34.03
2023-04-16T09:02:39.570Z,31.98
2023-04-16T09:04:12.067Z,29.35
2023-04-16T09:05:44.293Z,33.53
2023-04-16T09:07:17.265Z,33.47
2023-04-16T09:10:21.336Z,33.55
2023-04-16T09:11:54.030Z,35.67
2023-04-16T09:13:26.163Z,32.25
2023-04-16T09:15:01.357Z,30.02
2023-04-16T09:16:34.487Z,34.78
2023-04-16T09:18:06.582Z,33.03
2023-04-16T09:19:38.464Z,32.72
2023-04-16T09:21:11.431Z,34.53
2023-04-16T09:22:43.919Z,36.58
2023-04-16T09:24:16.087Z,35.42
2023-04-16T09:25:48.042Z,35.60
2023-04-16T09:27:20.451Z,29.05
2023-04-16T09:28:52.447Z,35.70
2023-04-16T09:30:28.527Z,37.65
2023-04-16T09:32:10.909Z,34.70
2023-04-16T09:33:43.740Z,30.63
2023-04-16T09:35:16.118Z,35.05
2023-04-16T09:36:48.065Z,36.15
2023-04-16T09:38:20.943Z,32.08
2023-04-16T09:41:31.664Z,30.70
2023-04-16T09:43:11.219Z,33.90
2023-04-16T09:44:43.193Z,27.60
2023-04-16T09:46:15.234Z,29.45
2023-04-16T09:47:51.022Z,34.70
2023-04-16T09:49:23.005Z,33.40
2023-04-16T09:50:54.966Z,27.83
2023-04-16T09:52:26.957Z,35.47
2023-04-16T09:53:59.075Z,31.13
2023-04-16T09:55:31.209Z,28.83
2023-04-16T09:57:03.886Z,31.20
2023-04-16T09:58:38.739Z,30.92
2023-04-16T10:00:11.660Z,27.77
2023-04-16T10:01:43.972Z,28.38
2023-04-16T10:03:16.125Z,30.38
2023-04-16T10:04:50.190Z,31.90
2023-04-16T10:06:24.059Z,27.15
2023-04-16T10:08:00.805Z,31.88
2023-04-16T10:09:33.771Z,30.33
2023-04-16T10:11:06.080Z,33.53
2023-04-16T10:12:38.114Z,31.10
2023-04-16T10:14:10.021Z,31.05
2023-04-16T10:15:42.362Z,26.03
2023-04-16T10:17:14.618Z,27.45
2023-04-16T10:18:47.692Z,30.35
2023-04-16T10:20:20.031Z,26.80
2023-04-16T10:21:52.288Z,28.48
2023-04-16T10:23:24.198Z,30.00
2023-04-16T10:24:56.305Z,34.30
2023-04-16T10:26:30.857Z,24.60
2023-04-16T10:28:03.490Z,31.58
2023-04-16T10:29:36.427Z,31.23
2023-04-16T10:32:45.178Z,30.48
2023-04-16T10:34:17.601Z,27.00
2023-04-16T10:36:01.201Z,31.45
2023-04-16T10:37:41.321Z,35.40
2023-04-16T10:39:16.880Z,26.08
2023-04-16T10:40:49.319Z,29.17
2023-04-16T10:42:22.049Z,29.88
2023-04-16T10:43:54.587Z,28.27
2023-04-16T10:45:37.787Z,29.23
2023-04-16T10:48:49.789Z,27.83
2023-04-16T10:50:22.504Z,26.10
2023-04-16T10:51:56.238Z,25.80
2023-04-16T10:53:28.270Z,21.88
2023-04-16T10:55:01.252Z,21.52
2023-04-16T10:56:33.888Z,24.48
2023-04-16T10:58:29.665Z,22.02
2023-04-16T11:00:01.718Z,20.20
2023-04-16T11:01:38.717Z,23.92
2023-04-16T11:03:10.920Z,23.55
2023-04-16T11:04:45.400Z,16.23
2023-04-16T11:06:24.808Z,16.88
2023-04-16T11:07:56.745Z,17.92
2023-04-16T11:09:50.015Z,19.23
2023-04-16T11:11:22.399Z,18.80
2023-04-16T11:12:54.892Z,20.42
2023-04-16T11:14:27.871Z,21.55
2023-04-16T11:16:00.232Z,22.98
2023-04-16T11:17:39.929Z,23.02
2023-04-16T11:19:16.944Z,21.92
2023-04-16T11:20:48.966Z,22.25
2023-04-16T11:22:22.383Z,20.05
2023-04-16T11:23:54.621Z,20.70
2023-04-16T11:25:30.059Z,22.65
2023-04-16T11:27:02.136Z,27.95
2023-04-16T11:28:35.064Z,32.30
2023-04-16T11:30:11.530Z,25.02
2023-04-16T11:31:50.966Z,20.58
2023-04-16T11:33:23.067Z,26.13
2023-04-16T11:34:55.201Z,23.58
2023-04-16T11:36:27.921Z,21.95
2023-04-16T11:39:31.889Z,23.80
2023-04-16T11:41:04.169Z,25.83
2023-04-16T11:42:44.562Z,25.00
2023-04-16T11:44:23.980Z,23.90
2023-04-16T11:46:16.652Z,28.90
2023-04-16T11:47:58.259Z,35.92
2023-04-16T11:49:30.966Z,34.72
2023-04-16T11:51:03.356Z,25.33
2023-04-16T11:52:36.723Z,25.33
2023-04-16T11:54:11.657Z,27.40
2023-04-16T11:55:45.881Z,23.45
2023-04-16T11:57:27.678Z,28.83
2023-04-16T11:59:26.414Z,26.65
2023-04-16T12:01:00.139Z,24.38
2023-04-16T12:02:35.914Z,26.90
2023-04-16T12:04:08.936Z,27.02
2023-04-16T12:05:41.088Z,27.67
2023-04-16T12:07:14.284Z,28.10
2023-04-16T12:08:46.402Z,30.05
2023-04-16T12:10:18.302Z,26.02
2023-04-16T12:11:50.218Z,26.10
2023-04-16T12:13:22.180Z,25.13
2023-04-16T12:14:54.930Z,32.08
2023-04-16T12:16:27.607Z,25.30
2023-04-16T12:19:58.829Z,23.52
2023-04-16T12:21:38.170Z,28.52
2023-04-16T12:23:11.551Z,25.45
2023-04-16T12:24:43.485Z,24.20
2023-04-16T12:26:15.828Z,18.33
2023-04-16T12:27:53.855Z,23.60
2023-04-16T12:29:28.025Z,20.52
2023-04-16T12:31:00.207Z,23.55
2023-04-16T12:32:32.299Z,21.85
2023-04-16T12:34:04.380Z,19.98
2023-04-16T12:35:36.536Z,24.13
2023-04-16T12:37:11.296Z,25.67
2023-04-16T12:38:43.272Z,20.15
2023-04-16T12:40:15.332Z,24.30
2023-04-16T12:41:47.320Z,21.83
2023-04-16T12:43:20.071Z,21.83
2023-04-16T12:46:23.970Z,24.27
2023-04-16T12:47:56.178Z,20.98
2023-04-16T12:49:28.223Z,20.02
2023-04-16T12:51:00.204Z,23.67
2023-04-16T12:52:32.137Z,21.23
2023-04-16T12:54:07.794Z,22.63
2023-04-16T12:55:39.714Z,27.98
2023-04-16T12:57:12.308Z,22.23
2023-04-16T12:58:44.278Z,23.42
2023-04-16T13:00:16.722Z,22.40
2023-04-16T13:01:48.820Z,21.35
2023-04-16T13:03:22.058Z,21.85
2023-04-16T13:04:54.638Z,22.20
2023-04-16T13:06:26.726Z,29.40
2023-04-16T13:07:58.681Z,22.43
2023-04-16T13:09:30.702Z,20.00
2023-04-16T13:11:02.652Z,22.48
2023-04-16T13:12:34.612Z,25.33
2023-04-16T13:14:06.718Z,20.23
2023-04-16T13:15:38.698Z,26.02
2023-04-16T13:17:10.746Z,23.50
2023-04-16T13:18:42.773Z,25.40
2023-04-16T13:20:14.695Z,24.67
2023-04-16T13:21:46.615Z,23.87
2023-04-16T13:23:18.700Z,21.93
2023-04-16T13:24:50.647Z,25.50
2023-04-16T13:26:22.625Z,22.58
2023-04-16T13:27:54.571Z,23.27
2023-04-16T13:29:26.570Z,26.65
2023-04-16T13:30:58.569Z,21.42
2023-04-16T13:32:31.106Z,21.52
2023-04-16T13:34:03.883Z,21.63
2023-04-16T13:37:08.024Z,29.60
2023-04-16T13:38:39.989Z,38.55
2023-04-16T13:40:12.032Z,32.77
2023-04-16T13:41:44.062Z,28.20
2023-04-16T13:43:19.129Z,34.70
2023-04-16T13:44:54.335Z,30.25
2023-04-16T13:46:26.803Z,27.63
2023-04-16T13:47:58.933Z,30.67
2023-04-16T13:49:32.649Z,27.10
2023-04-16T13:51:06.606Z,29.90
2023-04-16T13:52:38.552Z,30.23
2023-04-16T13:54:10.592Z,28.17
2023-04-16T13:55:42.992Z,33.92
2023-04-16T13:57:15.140Z,31.95
2023-04-16T13:58:47.084Z,32.05
2023-04-16T14:00:19.899Z,30.70
2023-04-16T14:03:25.791Z,28.48
2023-04-16T14:04:57.777Z,34.15
2023-04-16T14:06:29.711Z,28.60
2023-04-16T14:08:04.761Z,30.83
2023-04-16T14:09:36.830Z,29.13
2023-04-16T14:11:09.457Z,29.23
2023-04-16T14:12:41.556Z,30.80
2023-04-16T14:14:13.460Z,29.35
2023-04-16T14:15:45.462Z,33.23
2023-04-16T14:17:17.327Z,29.60
2023-04-16T14:18:49.354Z,31.43
2023-04-16T14:20:21.522Z,30.33
2023-04-16T14:21:53.528Z,28.40
2023-04-16T14:23:25.437Z,33.25
2023-04-16T14:24:57.397Z,33.27
2023-04-16T14:26:29.409Z,36.07
2023-04-16T14:28:01.598Z,29.67
2023-04-16T14:29:33.536Z,28.55
2023-04-16T14:31:05.485Z,26.80
2023-04-16T14:32:37.560Z,31.20
2023-04-16T14:34:09.570Z,27.30
2023-04-16T14:35:41.624Z,30.17
2023-04-16T14:37:13.584Z,27.80
2023-04-16T14:38:47.683Z,28.60
2023-04-16T14:40:19.729Z,26.55
2023-04-16T14:41:51.653Z,26.13
2023-04-16T14:43:23.631Z,23.67
2023-04-16T14:44:55.787Z,27.60
2023-04-16T14:46:27.772Z,23.85
2023-04-16T14:47:59.737Z,28.50
2023-04-16T14:49:32.702Z,25.63
2023-04-16T14:51:04.814Z,26.75
2023-04-16T14:52:36.819Z,28.33
2023-04-16T14:54:09.214Z,32.83
2023-04-16T14:55:41.221Z,28.23
2023-04-16T14:57:13.206Z,30.77
2023-04-16T14:58:45.177Z,23.45
2023-04-16T15:00:20.546Z,27.00
2023-04-16T15:01:52.992Z,29.15
2023-04-16T15:03:25.803Z,29.02
2023-04-16T15:04:57.866Z,28.63
2023-04-16T15:06:29.809Z,30.95
2023-04-16T15:08:02.372Z,24.30
2023-04-16T15:09:34.914Z,27.02
2023-04-16T15:11:06.851Z,29.58
2023-04-16T15:12:39.053Z,26.37
2023-04-16T15:14:11.157Z,26.25
2023-04-16T15:15:43.722Z,25.10
2023-04-16T15:17:15.661Z,26.05
2023-04-16T15:18:47.935Z,26.77
2023-04-16T15:20:19.860Z,22.77
2023-04-16T15:21:51.966Z,25.10
2023-04-16T15:23:23.938Z,22.88
2023-04-16T15:24:55.837Z,25.67
2023-04-16T15:26:31.250Z,26.55
2023-04-16T15:28:03.212Z,25.48
2023-04-16T15:29:35.716Z,25.00
2023-04-16T15:31:07.739Z,27.02
2023-04-16T15:32:39.665Z,26.90
2023-04-16T15:34:11.750Z,23.98
2023-04-16T15:35:44.324Z,25.17
2023-04-16T15:37:16.378Z,28.10
2023-04-16T15:38:48.324Z,25.35
2023-04-16T15:40:21.101Z,26.37
2023-04-16T15:42:01.504Z,26.75
2023-04-16T15:43:34.855Z,25.88
2023-04-16T15:45:06.987Z,26.73
2023-04-16T15:46:38.946Z,29.58
2023-04-16T15:48:11.001Z,26.13
2023-04-16T15:49:42.917Z,29.23
2023-04-16T15:51:14.904Z,22.83
2023-04-16T15:52:47.392Z,25.30
2023-04-16T15:54:19.519Z,26.20
2023-04-16T15:55:53.865Z,24.02
2023-04-16T15:57:25.753Z,23.60
2023-04-16T15:58:57.701Z,25.85
2023-04-16T16:00:29.612Z,27.65
2023-04-16T16:02:01.634Z,27.60
2023-04-16T16:03:36.089Z,25.92
2023-04-16T16:05:13.022Z,30.60
2023-04-16T16:06:44.939Z,27.10
2023-04-16T16:08:16.888Z,26.13
2023-04-16T16:09:48.796Z,28.47
2023-04-16T16:11:21.504Z,25.73
2023-04-16T16:12:53.966Z,26.95
2023-04-16T16:14:27.048Z,28.73
2023-04-16T16:15:59.152Z,23.50
2023-04-16T16:17:31.316Z,32.25
2023-04-16T16:19:03.334Z,29.58
2023-04-16T16:20:35.416Z,25.65
2023-04-16T16:22:08.054Z,24.42
2023-04-16T16:23:39.991Z,22.35
2023-04-16T16:25:11.913Z,24.67
2023-04-16T16:26:43.793Z,27.13
2023-04-16T16:28:15.808Z,24.65
2023-04-16T16:29:47.783Z,21.27
2023-04-16T16:31:19.771Z,30.63
2023-04-16T16:32:51.780Z,25.00
2023-04-16T16:34:23.752Z,26.48
2023-04-16T16:35:55.662Z,24.05
2023-04-16T16:37:28.986Z,23.58
2023-04-16T16:39:00.889Z,24.85
2023-04-16T16:40:33.025Z,27.73
2023-04-16T16:42:05.015Z,23.52
2023-04-16T16:43:36.986Z,25.25
2023-04-16T16:45:09.613Z,27.75
2023-04-16T16:46:41.618Z,25.80
2023-04-16T16:48:13.535Z,25.83
2023-04-16T16:49:45.752Z,32.17
2023-04-16T16:51:19.141Z,29.33
2023-04-16T16:52:51.204Z,28.77
2023-04-16T16:54:23.131Z,27.83
2023-04-16T16:55:54.990Z,27.43
2023-04-16T16:57:27.340Z,32.72
2023-04-16T16:58:59.271Z,34.33
2023-04-16T17:00:31.416Z,31.67
2023-04-16T17:02:03.426Z,28.70
2023-04-16T17:03:35.840Z,35.65
2023-04-16T17:05:08.178Z,32.97
2023-04-16T17:06:40.357Z,31.20
2023-04-16T17:08:12.589Z,32.97
2023-04-16T17:09:44.590Z,33.13
2023-04-16T17:11:18.015Z,32.55
2023-04-16T17:12:50.825Z,30.38
2023-04-16T17:14:22.888Z,32.03
2023-04-16T17:15:54.931Z,28.23
2023-04-16T17:17:27.999Z,30.08
2023-04-16T17:19:01.576Z,30.35
2023-04-16T17:20:34.159Z,31.25
2023-04-16T17:22:06.347Z,25.80
2023-04-16T17:23:41.029Z,39.78
2023-04-16T17:25:13.397Z,32.75
2023-04-16T17:26:45.421Z,32.15
2023-04-16T17:28:17.480Z,30.58
2023-04-16T17:29:49.371Z,30.43
2023-04-16T17:31:21.767Z,24.77
2023-04-16T17:32:54.099Z,31.38
2023-04-16T17:34:26.102Z,26.02
2023-04-16T17:35:58.026Z,32.03
2023-04-16T17:37:30.068Z,35.60
2023-04-16T17:39:02.686Z,35.47
2023-04-16T17:40:34.687Z,33.88
2023-04-16T17:42:06.741Z,31.05
2023-04-16T17:43:38.839Z,31.98
2023-04-16T17:45:11.223Z,30.63
2023-04-16T17:46:43.199Z,31.40
2023-04-16T17:48:15.240Z,30.17
2023-04-16T17:49:47.257Z,30.40
2023-04-16T17:51:19.260Z,30.58
2023-04-16T17:52:51.506Z,25.63
2023-04-16T17:54:24.621Z,29.65
2023-04-16T17:55:57.031Z,29.63
2023-04-16T17:57:29.162Z,28.33
2023-04-16T17:59:01.521Z,29.20
2023-04-16T18:00:39.177Z,31.52
2023-04-16T18:02:11.307Z,32.65
2023-04-16T18:03:44.495Z,31.25
2023-04-16T18:05:16.898Z,28.77
2023-04-16T18:06:49.061Z,35.95
2023-04-16T18:08:23.137Z,29.20
2023-04-16T18:09:55.071Z,27.15
2023-04-16T18:11:28.439Z,28.25
2023-04-16T18:13:01.978Z,28.88
2023-04-16T18:14:38.928Z,30.40
2023-04-16T18:16:17.538Z,27.17
2023-04-16T18:17:49.606Z,31.38
2023-04-16T18:19:21.679Z,26.83
2023-04-16T18:20:53.601Z,32.25
2023-04-16T18:22:27.479Z,27.93
2023-04-16T18:24:01.171Z,27.27
2023-04-16T18:25:40.338Z,26.67
2023-04-16T18:27:12.636Z,29.20
2023-04-16T18:28:45.424Z,27.75
2023-04-16T18:30:23.456Z,30.48
2023-04-16T18:31:59.170Z,24.75
2023-04-16T18:35:07.694Z,24.75
2023-04-16T18:36:39.610Z,24.80
2023-04-16T18:38:13.407Z,24.10
2023-04-16T18:39:45.553Z,29.42
2023-04-16T18:41:18.496Z,22.75
2023-04-16T18:42:50.616Z,27.17
2023-04-16T18:44:23.429Z,24.85
2023-04-16T18:47:27.489Z,24.50
2023-04-16T18:48:59.810Z,29.63
2023-04-16T18:50:32.310Z,27.58
2023-04-16T18:52:04.372Z,25.02
2023-04-16T18:53:36.450Z,29.23
2023-04-16T18:55:08.787Z,22.63
2023-04-16T18:56:40.683Z,29.40
2023-04-16T18:58:12.585Z,22.03
2023-04-16T18:59:44.633Z,26.30
2023-04-16T19:01:16.851Z,29.73
2023-04-16T19:02:48.982Z,21.42
2023-04-16T19:04:21.138Z,26.73
2023-04-16T19:05:53.882Z,28.88
2023-04-16T19:07:25.819Z,26.50
2023-04-16T19:08:57.827Z,25.20
2023-04-16T19:10:29.932Z,27.95
2023-04-16T19:12:02.999Z,22.13
2023-04-16T19:13:34.849Z,31.05
2023-04-16T19:15:12.148Z,24.50
2023-04-16T19:16:45.804Z,27.30
2023-04-16T19:18:17.868Z,29.25
2023-04-16T19:19:49.900Z,30.02
2023-04-16T19:21:21.841Z,30.37
2023-04-16T19:22:53.804Z,26.70
2023-04-16T19:24:25.806Z,31.23
2023-04-16T19:25:58.055Z,27.95
2023-04-16T19:27:30.197Z,30.13
2023-04-16T19:29:02.162Z,31.05
2023-04-16T19:30:34.237Z,25.80
2023-04-16T19:32:06.389Z,29.25
2023-04-16T19:33:38.380Z,31.00
2023-04-16T19:35:10.964Z,26.38
2023-04-16T19:36:43.045Z,29.92
2023-04-16T19:38:15.045Z,27.98
2023-04-16T19:39:47.023Z,26.90
2023-04-16T19:41:18.969Z,31.70
2023-04-16T19:42:50.843Z,28.27
2023-04-16T19:44:23.446Z,29.93
2023-04-16T19:45:55.426Z,33.03
2023-04-16T19:47:28.199Z,24.85
2023-04-16T19:49:00.096Z,31.13
2023-04-16T19:50:32.052Z,25.67
2023-04-16T19:52:04.222Z,32.57
2023-04-16T19:53:36.736Z,32.35
2023-04-16T19:55:09.061Z,32.42
2023-04-16T19:56:41.023Z,28.45
2023-04-16T19:58:14.748Z,30.20
2023-04-16T19:59:46.710Z,28.45
2023-04-16T20:01:18.753Z,28.63
2023-04-16T20:02:50.891Z,29.90
2023-04-16T20:04:22.888Z,33.05
2023-04-16T20:05:54.896Z,30.55
2023-04-16T20:07:31.964Z,34.15
2023-04-16T20:09:05.149Z,33.03
2023-04-16T20:10:44.750Z,31.80
2023-04-16T20:12:18.769Z,28.65
2023-04-16T20:13:54.601Z,31.52
2023-04-16T20:16:58.550Z,34.67
2023-04-16T20:18:30.591Z,30.58
2023-04-16T20:20:10.019Z,32.20
2023-04-16T20:21:43.442Z,29.58
2023-04-16T20:23:15.698Z,29.05
2023-04-16T20:24:48.203Z,29.90
2023-04-16T20:26:20.292Z,26.38